Time;durP1;ratioP1;P1;durP2;ratioP2;P2;SDS_P1;SDS_P2;PMS_P1;PMS_P2;Temp;Humidity;BMP_temperature;BMP_pressure;BME280_temperature;BME280_humidity;BME280_pressure;Samples;Min_cycle;Max_cycle;Signal;HPM_P1;HPM_P2
2021/09/04 00:01:42;;;;;;;6.05;2.92;;;;;;;15.90;55.94;100062.95;1688004;83;21045;-61
2021/09/04 00:04:09;;;;;;;5.15;2.02;;;;;;;15.86;56.09;100057.14;1690132;83;21228;-61
2021/09/04 00:06:35;;;;;;;7.78;2.60;;;;;;;15.86;56.48;100057.65;1714596;81;21070;-62
2021/09/04 00:09:03;;;;;;;7.22;2.47;;;;;;;15.84;56.81;100059.64;1704352;83;21023;-62
2021/09/04 00:11:29;;;;;;;5.75;2.47;;;;;;;15.81;57.23;100059.47;1686687;84;21976;-62
2021/09/04 00:13:58;;;;;;;5.85;2.40;;;;;;;15.78;57.48;100067.27;1714319;83;21117;-61
2021/09/04 00:16:26;;;;;;;5.83;2.62;;;;;;;15.79;57.91;100072.07;1694577;83;21070;-61
2021/09/04 00:18:54;;;;;;;6.67;2.52;;;;;;;15.85;57.94;100067.92;1694649;83;21566;-61
2021/09/04 00:21:20;;;;;;;6.15;2.47;;;;;;;15.87;57.97;100064.59;1693251;83;21090;-61
2021/09/04 00:23:47;;;;;;;6.78;2.45;;;;;;;15.83;58.33;100075.22;1679396;83;21906;-61
2021/09/04 00:26:13;;;;;;;10.08;3.10;;;;;;;15.77;58.54;100069.58;1692543;84;21085;-62
2021/09/04 00:28:42;;;;;;;7.55;3.60;;;;;;;15.70;59.09;100067.23;1689348;84;21071;-63
2021/09/04 00:31:09;;;;;;;5.78;2.70;;;;;;;15.66;59.25;100067.71;1695725;81;21012;-63
2021/09/04 00:33:35;;;;;;;6.37;2.83;;;;;;;15.62;59.77;100076.49;1704031;82;21538;-62
2021/09/04 00:36:03;;;;;;;6.08;2.58;;;;;;;15.59;59.92;100069.67;1714611;82;21128;-62
2021/09/04 00:38:30;;;;;;;6.12;2.90;;;;;;;15.57;59.87;100065.04;1694376;82;21063;-62
2021/09/04 00:40:57;;;;;;;5.78;2.67;;;;;;;15.56;59.92;100065.20;1720069;82;21052;-62
2021/09/04 00:43:24;;;;;;;6.45;2.98;;;;;;;15.64;60.00;100069.20;1691947;83;21111;-62
2021/09/04 00:45:51;;;;;;;6.08;2.90;;;;;;;15.72;59.83;100071.05;1695999;82;21770;-62
2021/09/04 00:48:17;;;;;;;6.40;2.15;;;;;;;15.73;59.80;100066.05;1688061;83;21108;-62
2021/09/04 00:50:45;;;;;;;5.30;1.77;;;;;;;15.71;59.84;100057.44;1704219;83;21059;-62
2021/09/04 00:53:12;;;;;;;5.75;2.17;;;;;;;15.73;60.03;100066.88;1678872;83;22321;-62
2021/09/04 00:55:39;;;;;;;6.45;2.80;;;;;;;15.70;60.21;100063.72;1714673;81;21193;-62
2021/09/04 00:58:09;;;;;;;5.60;2.33;;;;;;;15.66;60.20;100063.23;1706514;82;21059;-61
2021/09/04 01:00:36;;;;;;;6.40;2.35;;;;;;;15.66;60.42;100062.41;1717091;83;23264;-62
2021/09/04 01:03:03;;;;;;;6.55;2.60;;;;;;;15.66;60.72;100061.90;1706137;82;21070;-64
2021/09/04 01:05:29;;;;;;;6.53;3.08;;;;;;;15.66;61.11;100058.42;1717103;83;21065;-61
2021/09/04 01:07:58;;;;;;;6.42;3.22;;;;;;;15.75;61.15;100060.96;1682156;82;21115;-62
2021/09/04 01:10:26;;;;;;;6.35;2.42;;;;;;;15.85;61.03;100061.28;1715123;83;21428;-60
2021/09/04 01:12:53;;;;;;;5.67;2.65;;;;;;;15.89;61.07;100064.78;1713987;83;22008;-61
2021/09/04 01:15:21;;;;;;;6.17;3.05;;;;;;;15.89;60.99;100060.80;1706740;82;21071;-62
2021/09/04 01:17:48;;;;;;;7.08;2.62;;;;;;;15.86;61.07;100053.67;1710187;82;21090;-61
2021/09/04 01:20:14;;;;;;;6.20;2.72;;;;;;;15.83;61.34;100065.94;1707114;82;21006;-62
2021/09/04 01:22:41;;;;;;;9.73;2.52;;;;;;;15.75;61.56;100058.31;1709729;82;21595;-62
2021/09/04 01:25:10;;;;;;;6.53;2.75;;;;;;;15.76;61.67;100063.11;1708956;82;21139;-61
2021/09/04 01:27:38;;;;;;;7.62;2.77;;;;;;;15.80;61.72;100065.75;1712244;83;21106;-61
2021/09/04 01:30:07;;;;;;;6.45;2.65;;;;;;;15.81;61.91;100062.12;1704348;83;21091;-60
2021/09/04 01:32:33;;;;;;;6.03;2.80;;;;;;;15.74;62.11;100059.26;1697525;84;21088;-61
2021/09/04 01:35:07;;;;;;;7.67;2.75;;;;;;;15.66;62.42;100057.92;1728661;81;21079;-61
2021/09/04 01:37:34;;;;;;;5.87;2.50;;;;;;;15.58;62.56;100060.56;1684002;83;22467;-62
2021/09/04 01:40:09;;;;;;;6.95;2.83;;;;;;;15.50;63.09;100071.14;1715478;83;21070;-62
2021/09/04 01:42:36;;;;;;;7.25;3.20;;;;;;;15.42;63.26;100080.75;1684316;83;21565;-62
2021/09/04 01:45:04;;;;;;;6.25;2.55;;;;;;;15.36;63.57;100088.02;1711216;82;21152;-62
2021/09/04 01:47:30;;;;;;;6.05;2.77;;;;;;;15.35;63.54;100082.39;1709034;82;21064;-61
2021/09/04 01:49:58;;;;;;;8.43;2.92;;;;;;;15.41;63.50;100083.56;1683211;83;21164;-62
2021/09/04 01:52:25;;;;;;;6.90;2.33;;;;;;;15.42;63.56;100088.70;1712682;82;21080;-62
2021/09/04 01:54:52;;;;;;;7.42;2.90;;;;;;;15.41;63.60;100099.47;1729144;82;21541;-62
2021/09/04 01:57:19;;;;;;;6.65;2.90;;;;;;;15.35;63.78;100090.34;1730685;81;21483;-62
2021/09/04 01:59:46;;;;;;;7.28;2.80;;;;;;;15.33;63.87;100084.86;1768327;79;21129;-62
2021/09/04 02:02:13;;;;;;;6.20;3.00;;;;;;;15.31;63.96;100075.73;1768980;79;21960;-62
2021/09/04 02:04:41;;;;;;;8.65;3.30;;;;;;;15.29;64.11;100077.72;1774781;79;21475;-61
2021/09/04 02:07:09;;;;;;;5.55;2.47;;;;;;;15.28;64.17;100079.20;1742497;80;21054;-62
2021/09/04 02:09:35;;;;;;;6.45;2.65;;;;;;;15.26;64.25;100082.52;1771298;79;21035;-62
2021/09/04 02:12:02;;;;;;;6.05;2.62;;;;;;;15.26;64.26;100080.69;1768918;79;21082;-62
2021/09/04 02:14:29;;;;;;;6.20;2.52;;;;;;;15.36;64.23;100086.69;1768622;80;21117;-62
2021/09/04 02:16:56;;;;;;;7.10;3.30;;;;;;;15.45;64.06;100089.36;1767417;79;21051;-62
2021/09/04 02:19:27;;;;;;;8.90;3.67;;;;;;;15.52;64.16;100093.05;1770245;80;21533;-62
2021/09/04 02:21:54;;;;;;;11.78;3.70;;;;;;;15.58;64.02;100090.58;1732795;80;21433;-62
2021/09/04 02:24:21;;;;;;;7.87;3.47;;;;;;;15.60;63.86;100089.06;1768623;79;21097;-62
2021/09/04 02:26:48;;;;;;;8.20;4.05;;;;;;;15.61;63.77;100092.88;1770641;79;21545;-62
2021/09/04 02:29:15;;;;;;;6.37;2.98;;;;;;;15.64;63.77;100097.55;1766150;79;21078;-62
2021/09/04 02:31:42;;;;;;;7.92;3.15;;;;;;;15.64;63.63;100106.33;1764734;80;21152;-61
2021/09/04 02:34:11;;;;;;;7.30;3.50;;;;;;;15.60;63.60;100104.50;1762505;79;21074;-62
2021/09/04 02:36:39;;;;;;;6.90;3.37;;;;;;;15.60;63.60;100093.89;1771338;80;21545;-62
2021/09/04 02:39:07;;;;;;;8.08;3.62;;;;;;;15.64;63.54;100106.33;1761889;80;22057;-61
2021/09/04 02:41:34;;;;;;;8.10;3.80;;;;;;;15.68;63.55;100098.87;1741292;80;21066;-62
2021/09/04 02:44:02;;;;;;;8.45;3.90;;;;;;;15.67;63.61;100100.70;1733270;80;21050;-62
2021/09/04 02:46:29;;;;;;;8.03;3.95;;;;;;;15.66;63.64;100099.03;1768793;80;21106;-62
2021/09/04 02:48:56;;;;;;;8.55;4.10;;;;;;;15.66;63.58;100108.82;1768742;80;21042;-62
2021/09/04 02:51:25;;;;;;;8.08;3.80;;;;;;;15.64;63.68;100114.79;1761649;80;21091;-61
2021/09/04 02:53:52;;;;;;;7.95;4.08;;;;;;;15.60;63.65;100107.63;1729117;81;21601;-61
2021/09/04 02:56:18;;;;;;;8.55;3.85;;;;;;;15.58;63.64;100108.29;1758198;80;21133;-62
2021/09/04 02:58:49;;;;;;;12.13;4.47;;;;;;;15.60;63.61;100107.63;1757475;80;21117;-63
2021/09/04 03:01:16;;;;;;;7.90;4.08;;;;;;;15.60;63.64;100109.80;1759533;80;21075;-64
2021/09/04 03:03:45;;;;;;;8.33;3.90;;;;;;;15.59;63.76;100110.78;1760805;79;21724;-66
2021/09/04 03:06:14;;;;;;;6.78;3.67;;;;;;;15.58;63.79;100112.27;1760197;81;21147;-67
2021/09/04 03:08:42;;;;;;;10.45;4.08;;;;;;;15.58;63.93;100105.64;1761207;81;21085;-66
2021/09/04 03:11:12;;;;;;;7.90;3.67;;;;;;;15.61;63.90;100100.84;1754494;80;21600;-66
2021/09/04 03:13:43;;;;;;;7.35;3.67;;;;;;;15.60;63.84;100099.20;1760642;79;21124;-66
2021/09/04 03:16:12;;;;;;;8.73;4.00;;;;;;;15.61;63.90;100106.64;1758840;81;21071;-67
2021/09/04 03:18:42;;;;;;;9.08;3.92;;;;;;;15.65;63.95;100101.84;1694189;83;21091;-61
2021/09/04 03:21:09;;;;;;;9.63;4.05;;;;;;;15.72;63.79;100110.33;1684956;82;21141;-62
2021/09/04 03:23:38;;;;;;;9.50;4.08;;;;;;;15.73;63.87;100118.59;1719695;82;21513;-63
2021/09/04 03:26:09;;;;;;;9.68;3.77;;;;;;;15.76;63.91;100130.25;1689624;83;21383;-63
2021/09/04 03:28:39;;;;;;;9.30;3.65;;;;;;;15.71;64.01;100130.38;1691474;82;21115;-62
2021/09/04 03:31:10;;;;;;;8.55;3.37;;;;;;;15.68;64.11;100132.02;1674674;83;21647;-61
2021/09/04 03:33:44;;;;;;;7.28;3.30;;;;;;;15.67;64.19;100140.96;1714307;81;21608;-61
2021/09/04 03:36:13;;;;;;;11.43;4.10;;;;;;;15.69;64.28;100140.33;1713492;82;22122;-61
2021/09/04 03:38:43;;;;;;;7.58;3.92;;;;;;;15.72;64.22;100147.97;1671938;84;21145;-63
2021/09/04 03:41:14;;;;;;;7.22;3.45;;;;;;;15.70;64.35;100161.39;1720639;81;21550;-62
2021/09/04 03:43:42;;;;;;;7.12;2.65;;;;;;;15.73;64.36;100161.04;1688945;83;21637;-62
2021/09/04 03:46:09;;;;;;;6.05;2.72;;;;;;;15.78;64.42;100164.09;1707763;83;21130;-62
2021/09/04 03:48:36;;;;;;;6.78;3.08;;;;;;;15.83;64.54;100166.75;1714025;82;21078;-60
2021/09/04 03:51:04;;;;;;;7.58;3.37;;;;;;;15.84;64.26;100167.91;1694442;82;21075;-61
2021/09/04 03:53:30;;;;;;;6.72;3.05;;;;;;;15.81;64.22;100176.70;1763423;79;21129;-61
2021/09/04 03:55:59;;;;;;;6.72;2.55;;;;;;;15.74;64.08;100181.28;1768045;79;21074;-63
2021/09/04 03:58:27;;;;;;;4.62;2.02;;;;;;;15.67;63.95;100178.09;1771238;79;21121;-62
2021/09/04 04:00:55;;;;;;;6.37;1.60;;;;;;;15.59;63.58;100181.06;1768685;80;21069;-62
2021/09/04 04:03:23;;;;;;;4.60;1.25;;;;;;;15.52;63.33;100189.33;1746668;80;21326;-63
2021/09/04 04:05:50;;;;;;;4.72;1.60;;;;;;;15.49;63.66;100194.95;1771720;79;21254;-63
2021/09/04 04:08:18;;;;;;;5.60;1.75;;;;;;;15.49;63.68;100194.13;1762986;79;21062;-67
2021/09/04 04:10:46;;;;;;;5.00;1.27;;;;;;;15.53;63.55;100196.31;1733226;80;21050;-66
2021/09/04 04:13:13;;;;;;;3.70;1.10;;;;;;;15.57;63.26;100197.64;1765930;80;21075;-66
2021/09/04 04:15:41;;;;;;;5.05;1.32;;;;;;;15.58;62.97;100203.77;1737931;80;21494;-65
2021/09/04 04:18:08;;;;;;;3.20;0.95;;;;;;;15.58;62.81;100209.92;1769593;80;21102;-64
2021/09/04 04:20:35;;;;;;;4.83;1.80;;;;;;;15.53;62.88;100221.50;1765930;79;21074;-66
2021/09/04 04:23:03;;;;;;;3.60;1.32;;;;;;;15.51;63.50;100227.94;1765406;80;21089;-65
2021/09/04 04:25:33;;;;;;;4.78;1.60;;;;;;;15.48;63.33;100229.58;1770400;79;21099;-65
2021/09/04 04:28:01;;;;;;;7.25;2.95;;;;;;;15.48;63.44;100235.70;1761619;80;21147;-65
2021/09/04 04:30:31;;;;;;;3.00;1.02;;;;;;;15.56;63.74;100237.58;1763672;80;21187;-64
2021/09/04 04:32:58;;;;;;;5.95;1.60;;;;;;;15.60;63.33;100234.92;1763583;79;21165;-64
2021/09/04 04:35:25;;;;;;;4.40;1.50;;;;;;;15.60;62.83;100237.11;1766379;80;21083;-65
2021/09/04 04:37:52;;;;;;;5.03;2.10;;;;;;;15.57;62.68;100238.74;1766601;79;21368;-65
2021/09/04 04:40:20;;;;;;;5.78;2.10;;;;;;;15.51;62.71;100254.45;1768289;79;21120;-65
2021/09/04 04:42:47;;;;;;;4.45;1.47;;;;;;;15.48;63.04;100264.05;1764847;79;21191;-63
2021/09/04 04:45:15;;;;;;;5.50;1.07;;;;;;;15.48;62.90;100264.05;1769536;79;21081;-62
2021/09/04 04:47:45;;;;;;;4.42;1.35;;;;;;;15.46;62.65;100261.55;1765659;79;21305;-62
2021/09/04 04:50:19;;;;;;;3.77;1.22;;;;;;;15.48;62.90;100268.02;1758975;79;21032;-62
2021/09/04 04:52:43;;;;;;;3.20;1.07;;;;;;;15.53;63.00;100264.41;1727685;82;21099;-62
2021/09/04 04:55:11;;;;;;;2.67;0.98;;;;;;;15.53;62.34;100272.36;1762701;79;21467;-64
2021/09/04 04:57:38;;;;;;;4.55;1.25;;;;;;;15.54;62.23;100271.38;1767336;80;21587;-61
2021/09/04 05:00:05;;;;;;;2.95;0.98;;;;;;;15.57;61.56;100273.73;1763776;79;21070;-61
2021/09/04 05:02:32;;;;;;;2.33;0.70;;;;;;;15.52;60.58;100269.39;1728828;80;21478;-62
2021/09/04 05:04:59;;;;;;;4.85;1.20;;;;;;;15.43;60.76;100272.47;1765189;79;21082;-61
2021/09/04 05:07:26;;;;;;;3.55;0.95;;;;;;;15.37;60.60;100276.59;1766765;80;22510;-62
2021/09/04 05:09:52;;;;;;;3.02;1.02;;;;;;;15.37;60.40;100274.44;1766792;79;21070;-61
2021/09/04 05:12:21;;;;;;;3.37;0.80;;;;;;;15.36;60.07;100278.89;1769221;79;21058;-59
2021/09/04 05:14:48;;;;;;;3.95;0.93;;;;;;;15.32;59.91;100278.05;1767190;79;21138;-63
2021/09/04 05:17:16;;;;;;;3.45;0.80;;;;;;;15.26;59.18;100290.09;1765638;79;21129;-60
2021/09/04 05:19:44;;;;;;;3.40;1.05;;;;;;;15.17;59.32;100291.86;1764316;80;21148;-61
2021/09/04 05:22:11;;;;;;;2.62;0.82;;;;;;;15.13;59.50;100296.30;1757764;79;21080;-62
2021/09/04 05:24:38;;;;;;;2.85;1.00;;;;;;;15.16;59.98;100294.19;1756673;79;21650;-60
2021/09/04 05:27:05;;;;;;;3.58;1.17;;;;;;;15.23;60.13;100289.08;1765768;79;21101;-58
2021/09/04 05:29:32;;;;;;;3.85;1.10;;;;;;;15.25;59.85;100296.41;1763955;79;21534;-64
2021/09/04 05:31:58;;;;;;;3.00;0.82;;;;;;;15.25;59.59;100305.68;1736697;80;21114;-59
2021/09/04 05:34:25;;;;;;;2.37;0.80;;;;;;;15.22;59.53;100307.31;1763394;80;21075;-60
2021/09/04 05:36:53;;;;;;;2.47;0.90;;;;;;;15.18;59.68;100308.59;1767500;79;21172;-59
2021/09/04 05:39:19;;;;;;;5.05;1.22;;;;;;;15.14;59.65;100312.05;1763835;80;21609;-59
2021/09/04 05:41:46;;;;;;;2.45;0.70;;;;;;;15.10;59.62;100315.18;1760749;79;21549;-58
2021/09/04 05:44:12;;;;;;;3.08;0.98;;;;;;;15.03;59.85;100315.78;1767111;80;21106;-62
2021/09/04 05:46:39;;;;;;;5.40;1.02;;;;;;;14.98;60.29;100323.87;1772352;79;20928;-60
2021/09/04 05:49:06;;;;;;;6.65;1.10;;;;;;;14.98;60.51;100324.69;1768367;80;21084;-63
2021/09/04 05:51:33;;;;;;;3.55;1.10;;;;;;;15.03;60.43;100332.19;1765303;80;20975;-63
2021/09/04 05:54:01;;;;;;;2.85;0.90;;;;;;;15.02;60.71;100336.63;1767319;79;21556;-60
2021/09/04 05:56:28;;;;;;;3.52;1.00;;;;;;;14.97;60.75;100338.09;1772172;79;21039;-65
2021/09/04 05:58:54;;;;;;;2.75;0.90;;;;;;;14.88;60.53;100339.84;1737365;79;22628;-63
2021/09/04 06:01:21;;;;;;;6.20;1.10;;;;;;;14.81;60.50;100345.37;1773501;79;21129;-65
2021/09/04 06:03:47;;;;;;;3.10;0.82;;;;;;;14.73;60.66;100347.47;1770950;80;21106;-65
2021/09/04 06:06:14;;;;;;;3.60;0.75;;;;;;;14.67;60.91;100345.42;1739318;80;21544;-61
2021/09/04 06:08:40;;;;;;;3.30;0.90;;;;;;;14.68;61.26;100355.86;1772620;79;21137;-62
2021/09/04 06:11:07;;;;;;;4.65;1.22;;;;;;;14.72;60.05;100350.27;1743154;80;21074;-60
2021/09/04 06:13:34;;;;;;;5.78;1.65;;;;;;;14.70;59.53;100354.89;1738785;80;21490;-61
2021/09/04 06:16:01;;;;;;;5.55;1.00;;;;;;;14.60;59.41;100362.90;1776018;80;20999;-61
2021/09/04 06:18:29;;;;;;;4.20;0.93;;;;;;;14.53;59.42;100364.45;1769027;79;21034;-59
2021/09/04 06:20:55;;;;;;;2.92;1.12;;;;;;;14.46;59.61;100367.69;1771512;79;21706;-62
2021/09/04 06:23:21;;;;;;;5.45;1.05;;;;;;;14.36;59.71;100370.88;1765426;80;21002;-61
2021/09/04 06:25:49;;;;;;;2.70;0.80;;;;;;;14.30;59.75;100366.99;1766730;79;21070;-62
2021/09/04 06:28:16;;;;;;;3.47;1.00;;;;;;;14.24;59.54;100376.86;1743223;80;21057;-69
2021/09/04 06:30:42;;;;;;;5.17;1.40;;;;;;;14.19;59.54;100379.12;1771361;79;21671;-65
2021/09/04 06:33:09;;;;;;;3.05;1.12;;;;;;;14.17;60.12;100384.20;1742393;80;21042;-63
2021/09/04 06:35:36;;;;;;;3.55;0.85;;;;;;;14.18;60.09;100391.99;1772957;79;21517;-64
2021/09/04 06:38:03;;;;;;;3.65;0.90;;;;;;;14.22;59.65;100396.03;1740294;80;21085;-63
2021/09/04 06:40:30;;;;;;;4.53;1.30;;;;;;;14.32;59.42;100393.31;1768733;79;21384;-67
2021/09/04 06:42:56;;;;;;;4.87;0.90;;;;;;;14.47;59.42;100397.63;1772680;79;21066;-64
2021/09/04 06:45:23;;;;;;;4.72;1.12;;;;;;;14.57;58.66;100394.44;1768790;79;21500;-65
2021/09/04 06:47:49;;;;;;;2.90;0.88;;;;;;;14.65;58.10;100397.20;1772020;80;21054;-66
2021/09/04 06:50:18;;;;;;;4.92;0.98;;;;;;;14.76;58.24;100397.97;1769620;80;21090;-65
2021/09/04 06:52:47;;;;;;;6.08;1.22;;;;;;;14.84;57.13;100395.41;1769200;80;21082;-66
2021/09/04 06:55:13;;;;;;;4.42;0.88;;;;;;;14.90;56.15;100397.47;1772911;79;21063;-64
2021/09/04 06:57:41;;;;;;;3.22;1.00;;;;;;;14.89;55.50;100396.30;1772182;79;21050;-67
2021/09/04 07:00:09;;;;;;;4.67;0.93;;;;;;;14.86;55.55;100407.53;1768616;79;21564;-66
2021/09/04 07:02:36;;;;;;;4.33;0.75;;;;;;;14.85;56.10;100411.66;1764827;79;21070;-63
2021/09/04 07:05:04;;;;;;;2.92;0.80;;;;;;;14.88;55.64;100417.98;1772764;79;22361;-68
2021/09/04 07:07:32;;;;;;;5.40;1.10;;;;;;;14.92;55.09;100425.14;1771518;80;21105;-67
2021/09/04 07:09:58;;;;;;;3.80;0.88;;;;;;;14.95;55.04;100426.99;1773664;80;21484;-67
2021/09/04 07:12:25;;;;;;;3.58;0.90;;;;;;;15.00;54.19;100431.34;1776640;80;21739;-67
2021/09/04 07:14:53;;;;;;;2.50;0.78;;;;;;;15.03;54.77;100427.08;1765657;79;21722;-70
2021/09/04 07:17:20;;;;;;;3.10;0.80;;;;;;;15.08;54.63;100428.42;1771886;79;21038;-65
2021/09/04 07:19:47;;;;;;;4.05;1.15;;;;;;;15.10;54.43;100433.11;1773017;79;21081;-66
2021/09/04 07:22:14;;;;;;;5.47;1.25;;;;;;;15.13;54.74;100436.76;1773732;79;21877;-66
2021/09/04 07:24:40;;;;;;;4.95;1.30;;;;;;;15.17;55.06;100437.64;1745514;80;21030;-70
2021/09/04 07:27:06;;;;;;;3.58;0.98;;;;;;;15.21;54.61;100446.97;1774657;80;21720;-64
2021/09/04 07:29:33;;;;;;;2.90;0.95;;;;;;;15.21;54.34;100446.97;1764869;79;21164;-65
2021/09/04 07:32:00;;;;;;;5.87;1.60;;;;;;;15.22;54.53;100450.44;1736653;80;21069;-68
2021/09/04 07:34:27;;;;;;;4.92;1.35;;;;;;;15.27;55.27;100451.32;1690975;83;21106;-67
2021/09/04 07:36:53;;;;;;;4.67;0.88;;;;;;;15.35;54.45;100444.27;1713799;83;21130;-65
2021/09/04 07:39:20;;;;;;;5.75;1.42;;;;;;;15.45;54.60;100450.82;1710392;82;21066;-66
2021/09/04 07:41:46;;;;;;;4.95;0.82;;;;;;;15.57;54.75;100451.41;1712845;82;21099;-56
2021/09/04 07:44:13;;;;;;;4.47;1.10;;;;;;;15.65;53.72;100454.13;1708139;82;21651;-69
2021/09/04 07:46:41;;;;;;;4.65;0.80;;;;;;;15.74;54.12;100450.53;1736875;82;21248;-65
2021/09/04 07:49:07;;;;;;;3.42;1.05;;;;;;;15.86;54.19;100444.52;1700628;82;21517;-67
2021/09/04 07:51:35;;;;;;;4.10;0.90;;;;;;;16.03;53.84;100450.75;1704781;82;21496;-67
2021/09/04 07:54:01;;;;;;;3.05;0.80;;;;;;;16.16;53.43;100458.30;1663844;83;21029;-69
2021/09/04 07:56:28;;;;;;;5.80;1.17;;;;;;;16.24;52.42;100453.52;1667883;84;22580;-69
2021/09/04 07:58:55;;;;;;;4.20;0.85;;;;;;;16.29;51.94;100449.89;1664963;84;21083;-63
2021/09/04 08:01:21;;;;;;;21.27;14.68;;;;;;;16.33;52.17;100455.23;1690519;83;22122;-65
2021/09/04 08:06:42;;;;;;;6.55;1.10;;;;;;;16.39;50.86;100449.77;1847094;76;22650;-67
2021/09/04 08:09:09;;;;;;;3.95;1.45;;;;;;;16.34;50.59;100451.09;1812292;77;20958;-67
2021/09/04 08:11:37;;;;;;;5.22;2.20;;;;;;;16.35;51.44;100450.09;1810032;77;21967;-70
2021/09/04 08:14:03;;;;;;;3.45;1.07;;;;;;;16.41;50.82;100454.42;1809382;77;20991;-66
2021/09/04 08:16:32;;;;;;;3.05;0.80;;;;;;;16.44;50.71;100450.98;1811354;77;20993;-66
2021/09/04 08:18:58;;;;;;;6.58;3.45;;;;;;;16.45;50.88;100450.48;1785081;78;21081;-67
2021/09/04 08:21:25;;;;;;;5.80;1.20;;;;;;;16.44;49.33;100451.45;1799434;79;20990;-68
2021/09/04 08:23:51;;;;;;;6.80;3.37;;;;;;;16.43;48.81;100445.83;1793937;79;21113;-70
2021/09/04 08:26:18;;;;;;;5.87;2.62;;;;;;;16.42;48.52;100446.30;1795247;77;20957;-67
2021/09/04 08:28:45;;;;;;;8.93;1.65;;;;;;;16.42;48.56;100447.63;1793467;79;21516;-66
2021/09/04 08:31:11;;;;;;;3.92;1.40;;;;;;;16.45;47.81;100447.31;1798898;77;21062;-68
2021/09/04 08:33:37;;;;;;;3.33;0.60;;;;;;;16.45;46.83;100444.66;1799789;77;21515;-64
2021/09/04 08:36:04;;;;;;;3.70;0.93;;;;;;;16.46;46.89;100443.68;1796322;78;21199;-65
2021/09/04 08:38:31;;;;;;;2.33;0.70;;;;;;;16.44;47.00;100444.81;1801986;77;21452;-65
2021/09/04 08:40:58;;;;;;;3.35;1.05;;;;;;;16.41;46.39;100441.15;1773929;77;21364;-69
2021/09/04 08:43:25;;;;;;;4.78;1.75;;;;;;;16.36;46.05;100441.65;1796471;77;21059;-67
2021/09/04 08:45:51;;;;;;;3.10;1.12;;;;;;;16.40;45.52;100445.63;1798538;77;21038;-69
2021/09/04 08:48:21;;;;;;;3.47;0.80;;;;;;;16.47;45.82;100442.67;1766955;78;21046;-66
2021/09/04 08:50:47;;;;;;;3.77;1.52;;;;;;;16.60;46.46;100446.72;1794414;77;21070;-68
2021/09/04 08:53:14;;;;;;;7.80;2.20;;;;;;;16.71;45.23;100442.45;1769735;79;20998;-68
2021/09/04 08:55:40;;;;;;;5.62;1.65;;;;;;;16.72;45.86;100438.78;1795425;77;21111;-67
2021/09/04 08:58:08;;;;;;;5.53;2.58;;;;;;;16.72;45.10;100439.60;1772298;78;21018;-66
2021/09/04 09:00:37;;;;;;;10.00;6.65;;;;;;;16.75;45.77;100438.46;1798135;77;21144;-67
2021/09/04 09:03:04;;;;;;;3.17;0.80;;;;;;;16.75;45.70;100442.95;1765405;79;22406;-66
2021/09/04 09:05:42;;;;;;;3.33;0.98;;;;;;;16.73;44.71;100439.12;1803035;77;21048;-65
2021/09/04 09:08:16;;;;;;;2.85;0.98;;;;;;;16.68;45.12;100444.92;1805703;78;21044;-66
2021/09/04 09:10:44;;;;;;;6.53;3.40;;;;;;;16.67;45.86;100445.90;1805452;77;21092;-70
2021/09/04 09:13:20;;;;;;;4.55;1.67;;;;;;;16.68;45.52;100449.41;1808404;77;21207;-70
2021/09/04 09:15:48;;;;;;;3.92;1.52;;;;;;;16.69;45.81;100451.05;1800945;77;21017;-69
2021/09/04 09:18:17;;;;;;;3.95;0.90;;;;;;;16.69;46.50;100458.55;1810518;78;21069;-67
2021/09/04 09:20:58;;;;;;;5.17;1.52;;;;;;;16.74;45.62;100454.56;1807230;77;21492;-70
2021/09/04 09:23:25;;;;;;;3.90;0.85;;;;;;;16.78;46.12;100455.89;1805701;78;21633;-71
2021/09/04 09:25:51;;;;;;;2.77;0.80;;;;;;;16.84;44.70;100461.42;1807718;78;21359;-68
2021/09/04 09:28:23;;;;;;;5.58;1.50;;;;;;;16.89;44.95;100461.80;1811541;78;21018;-68
2021/09/04 09:30:53;;;;;;;3.52;0.72;;;;;;;16.93;45.66;100467.62;1808209;78;21563;-72
2021/09/04 09:33:24;;;;;;;2.50;0.60;;;;;;;16.91;45.19;100478.89;1786287;77;21026;-67
2021/09/04 09:35:53;;;;;;;2.67;1.00;;;;;;;16.84;44.90;100476.04;1781866;77;21323;-69
2021/09/04 09:38:27;;;;;;;3.12;1.00;;;;;;;16.70;44.53;100479.30;1807920;78;21120;-69
2021/09/04 09:40:58;;;;;;;4.50;1.40;;;;;;;16.60;45.27;100478.60;1805195;77;21033;-69
2021/09/04 09:43:33;;;;;;;4.90;1.85;;;;;;;16.51;46.01;100478.56;1785252;78;21046;-66
2021/09/04 09:46:00;;;;;;;3.33;1.22;;;;;;;16.51;46.16;100474.58;1813045;77;22349;-67
2021/09/04 09:48:29;;;;;;;3.98;1.47;;;;;;;16.57;45.96;100483.72;1803485;78;21342;-68
2021/09/04 09:50:59;;;;;;;3.02;0.90;;;;;;;16.66;46.54;100480.13;1814206;78;21112;-72
2021/09/04 09:53:26;;;;;;;3.27;0.82;;;;;;;16.77;46.09;100477.66;1813238;78;21089;-68
2021/09/04 09:55:56;;;;;;;4.58;1.27;;;;;;;16.90;45.67;100478.06;1790793;78;21044;-69
2021/09/04 09:58:24;;;;;;;5.90;2.60;;;;;;;17.06;44.72;100474.63;1807206;78;21519;-68
2021/09/04 10:00:54;;;;;;;4.17;1.40;;;;;;;17.20;43.96;100477.14;1808135;78;22587;-67
2021/09/04 10:03:23;;;;;;;5.97;1.32;;;;;;;17.28;43.36;100477.63;1808280;77;21151;-67
2021/09/04 10:05:49;;;;;;;1.77;0.50;;;;;;;17.32;43.33;100478.16;1805039;77;21038;-66
2021/09/04 10:08:19;;;;;;;7.37;3.02;;;;;;;17.31;42.79;100473.83;1734068;77;21373;-67
2021/09/04 10:10:46;;;;;;;3.27;0.90;;;;;;;17.21;42.92;100485.94;1773045;79;21045;-67
2021/09/04 10:13:13;;;;;;;3.30;0.88;;;;;;;17.13;43.21;100483.27;1795065;77;21510;-66
2021/09/04 10:15:43;;;;;;;3.40;1.00;;;;;;;17.05;43.14;100492.07;1797720;77;21055;-68
2021/09/04 10:18:09;;;;;;;3.12;1.00;;;;;;;16.96;42.45;100483.72;1794085;77;22192;-67
2021/09/04 10:20:38;;;;;;;4.55;1.20;;;;;;;16.93;43.59;100488.03;1803080;77;21143;-66
2021/09/04 10:23:24;;;;;;;2.42;0.70;;;;;;;16.96;42.74;100486.38;1793462;78;21061;-71
2021/09/04 10:25:50;;;;;;;2.95;0.72;;;;;;;17.01;42.27;100488.05;1767227;77;21057;-68
2021/09/04 10:28:17;;;;;;;3.17;0.90;;;;;;;17.09;42.00;100482.77;1799047;77;22346;-68
2021/09/04 10:30:47;;;;;;;2.25;0.57;;;;;;;17.16;41.94;100485.59;1800220;77;21089;-67
2021/09/04 10:33:18;;;;;;;3.15;0.90;;;;;;;17.30;42.55;100496.09;1750359;79;21065;-67
2021/09/04 10:35:52;;;;;;;2.20;0.75;;;;;;;17.41;41.33;100482.48;1798979;79;21616;-68
2021/09/04 10:38:23;;;;;;;2.65;0.70;;;;;;;17.52;40.82;100493.31;1791245;77;20977;-72
2021/09/04 10:41:10;;;;;;;2.77;0.80;;;;;;;17.62;42.12;100492.64;1790218;77;21313;-67
2021/09/04 10:43:37;;;;;;;2.75;0.98;;;;;;;17.67;41.67;100498.77;1794952;77;21057;-70
2021/09/04 10:46:03;;;;;;;3.70;0.60;;;;;;;17.67;40.97;100484.14;1720681;77;21622;-68
2021/09/04 10:48:36;;;;;;;3.30;0.80;;;;;;;17.63;41.30;100495.62;1697773;80;21041;-68
2021/09/04 10:51:08;;;;;;;2.62;0.75;;;;;;;17.62;41.10;100492.64;1743523;79;21023;-71
2021/09/04 10:53:49;;;;;;;2.77;0.65;;;;;;;17.67;41.66;100498.77;1737264;79;22518;-68
2021/09/04 10:56:30;;;;;;;2.90;0.78;;;;;;;17.72;41.41;100501.77;1743877;80;21664;-68
2021/09/04 10:58:57;;;;;;;3.75;0.75;;;;;;;17.73;40.12;100498.12;1729195;81;21120;-69
2021/09/04 11:01:34;;;;;;;3.47;0.90;;;;;;;17.67;41.38;100504.95;1738222;81;21034;-68
2021/09/04 11:04:00;;;;;;;2.45;0.80;;;;;;;17.56;41.09;100503.43;1733394;80;22474;-68
2021/09/04 11:06:27;;;;;;;2.85;0.80;;;;;;;17.44;41.24;100510.08;1743987;80;22103;-67
2021/09/04 11:08:54;;;;;;;3.47;0.60;;;;;;;17.36;41.94;100507.41;1753280;79;21030;-67
2021/09/04 11:11:35;;;;;;;2.15;0.57;;;;;;;17.34;41.65;100509.41;1740616;80;21685;-67
2021/09/04 11:14:21;;;;;;;2.08;0.37;;;;;;;17.35;41.12;100503.92;1721080;81;21009;-68
2021/09/04 11:16:51;;;;;;;4.70;1.72;;;;;;;17.38;40.40;100511.58;1748688;79;21112;-67
2021/09/04 11:19:33;;;;;;;4.10;1.10;;;;;;;17.40;39.87;100512.72;1745353;81;21144;-71
2021/09/04 11:22:14;;;;;;;3.67;0.90;;;;;;;17.43;39.26;100501.28;1740214;79;21042;-67
2021/09/04 11:24:43;;;;;;;2.85;0.72;;;;;;;17.53;39.51;100501.09;1742344;81;21150;-70
2021/09/04 11:27:17;;;;;;;2.65;0.70;;;;;;;17.67;39.19;100505.42;1744118;81;21094;-67
2021/09/04 11:29:52;;;;;;;2.95;0.70;;;;;;;17.79;39.31;100505.45;1748975;81;21120;-68
2021/09/04 11:32:32;;;;;;;2.27;0.65;;;;;;;17.92;38.76;100508.47;1746661;79;21038;-70